sensor_id;sensor_type;location;lat;lon;timestamp;P1;durP1;ratioP1;P2;durP2;ratioP2
68803;SDS011;55787;52.678;13.314;2023-04-03T00:00:04;7.93;;;0.40;;
68803;SDS011;55787;52.678;13.314;2023-04-03T00:02:31;8.10;;;0.80;;
68803;SDS011;55787;52.678;13.314;2023-04-03T00:04:59;7.80;;;0.40;;
68803;SDS011;55787;52.678;13.314;2023-04-03T00:07:25;7.20;;;0.70;;
68803;SDS011;55787;52.678;13.314;2023-04-03T00:09:52;4.75;;;0.68;;
68803;SDS011;55787;52.678;13.314;2023-04-03T00:12:19;7.55;;;0.60;;
68803;SDS011;55787;52.678;13.314;2023-04-03T00:14:45;7.07;;;0.50;;
68803;SDS011;55787;52.678;13.314;2023-04-03T00:17:12;7.75;;;0.70;;
68803;SDS011;55787;52.678;13.314;2023-04-03T00:19:38;7.93;;;0.43;;
68803;SDS011;55787;52.678;13.314;2023-04-03T00:22:05;5.45;;;0.50;;
68803;SDS011;55787;52.678;13.314;2023-04-03T00:24:32;5.40;;;0.30;;
68803;SDS011;55787;52.678;13.314;2023-04-03T00:26:58;5.88;;;0.50;;
68803;SDS011;55787;52.678;13.314;2023-04-03T00:29:25;7.00;;;0.43;;
68803;SDS011;55787;52.678;13.314;2023-04-03T00:31:51;8.00;;;0.60;;
68803;SDS011;55787;52.678;13.314;2023-04-03T00:34:18;6.80;;;0.60;;
68803;SDS011;55787;52.678;13.314;2023-04-03T00:36:45;5.80;;;0.45;;
68803;SDS011;55787;52.678;13.314;2023-04-03T00:39:12;4.80;;;0.32;;
68803;SDS011;55787;52.678;13.314;2023-04-03T00:41:39;6.43;;;0.40;;
68803;SDS011;55787;52.678;13.314;2023-04-03T00:44:22;7.00;;;0.50;;
68803;SDS011;55787;52.678;13.314;2023-04-03T00:47:13;7.65;;;1.02;;
68803;SDS011;55787;52.678;13.314;2023-04-03T00:49:41;5.68;;;0.52;;
68803;SDS011;55787;52.678;13.314;2023-04-03T00:52:10;6.45;;;0.50;;
68803;SDS011;55787;52.678;13.314;2023-04-03T00:54:41;8.73;;;0.50;;
68803;SDS011;55787;52.678;13.314;2023-04-03T00:57:09;5.83;;;0.50;;
68803;SDS011;55787;52.678;13.314;2023-04-03T00:59:38;9.73;;;0.80;;
68803;SDS011;55787;52.678;13.314;2023-04-03T01:02:10;5.85;;;0.57;;
68803;SDS011;55787;52.678;13.314;2023-04-03T01:04:37;6.43;;;0.65;;
68803;SDS011;55787;52.678;13.314;2023-04-03T01:09:37;6.80;;;0.50;;
68803;SDS011;55787;52.678;13.314;2023-04-03T01:12:17;6.60;;;0.50;;
68803;SDS011;55787;52.678;13.314;2023-04-03T01:14:48;4.20;;;0.30;;
68803;SDS011;55787;52.678;13.314;2023-04-03T01:23:01;5.97;;;0.40;;
68803;SDS011;55787;52.678;13.314;2023-04-03T01:25:32;6.65;;;0.47;;
68803;SDS011;55787;52.678;13.314;2023-04-03T01:28:00;7.45;;;0.52;;
68803;SDS011;55787;52.678;13.314;2023-04-03T01:30:31;6.72;;;0.50;;
68803;SDS011;55787;52.678;13.314;2023-04-03T01:33:01;5.53;;;0.50;;
68803;SDS011;55787;52.678;13.314;2023-04-03T01:35:28;8.20;;;0.50;;
68803;SDS011;55787;52.678;13.314;2023-04-03T01:37:54;7.22;;;0.50;;
68803;SDS011;55787;52.678;13.314;2023-04-03T01:40:21;6.75;;;0.50;;
68803;SDS011;55787;52.678;13.314;2023-04-03T01:42:47;5.65;;;0.47;;
68803;SDS011;55787;52.678;13.314;2023-04-03T01:45:14;4.93;;;0.50;;
68803;SDS011;55787;52.678;13.314;2023-04-03T01:47:41;7.17;;;0.60;;
68803;SDS011;55787;52.678;13.314;2023-04-03T01:50:08;8.88;;;0.50;;
68803;SDS011;55787;52.678;13.314;2023-04-03T01:52:35;7.25;;;0.47;;
68803;SDS011;55787;52.678;13.314;2023-04-03T01:55:01;4.72;;;0.50;;
68803;SDS011;55787;52.678;13.314;2023-04-03T01:57:28;9.00;;;0.50;;
68803;SDS011;55787;52.678;13.314;2023-04-03T01:59:55;6.13;;;0.53;;
68803;SDS011;55787;52.678;13.314;2023-04-03T02:02:21;7.22;;;0.55;;
68803;SDS011;55787;52.678;13.314;2023-04-03T02:04:48;7.10;;;0.60;;
68803;SDS011;55787;52.678;13.314;2023-04-03T02:07:14;7.22;;;0.55;;
68803;SDS011;55787;52.678;13.314;2023-04-03T02:09:41;6.00;;;0.43;;
68803;SDS011;55787;52.678;13.314;2023-04-03T02:12:08;4.90;;;0.50;;
68803;SDS011;55787;52.678;13.314;2023-04-03T02:14:34;5.90;;;0.70;;
68803;SDS011;55787;52.678;13.314;2023-04-03T02:17:02;5.72;;;0.50;;
68803;SDS011;55787;52.678;13.314;2023-04-03T02:19:35;7.55;;;0.68;;
68803;SDS011;55787;52.678;13.314;2023-04-03T02:22:02;6.60;;;0.50;;
68803;SDS011;55787;52.678;13.314;2023-04-03T02:24:31;10.97;;;0.90;;
68803;SDS011;55787;52.678;13.314;2023-04-03T02:26:58;5.75;;;0.60;;
68803;SDS011;55787;52.678;13.314;2023-04-03T02:29:26;5.80;;;0.55;;
68803;SDS011;55787;52.678;13.314;2023-04-03T02:31:52;7.53;;;0.70;;
68803;SDS011;55787;52.678;13.314;2023-04-03T02:34:19;6.10;;;0.40;;
68803;SDS011;55787;52.678;13.314;2023-04-03T02:36:45;6.00;;;0.50;;
68803;SDS011;55787;52.678;13.314;2023-04-03T02:39:12;4.75;;;0.47;;
68803;SDS011;55787;52.678;13.314;2023-04-03T02:41:38;6.20;;;0.52;;
68803;SDS011;55787;52.678;13.314;2023-04-03T02:44:05;5.90;;;0.50;;
68803;SDS011;55787;52.678;13.314;2023-04-03T02:46:33;6.10;;;0.50;;
68803;SDS011;55787;52.678;13.314;2023-04-03T02:49:00;7.27;;;0.40;;
68803;SDS011;55787;52.678;13.314;2023-04-03T02:51:26;4.82;;;0.50;;
68803;SDS011;55787;52.678;13.314;2023-04-03T02:53:53;8.02;;;0.60;;
68803;SDS011;55787;52.678;13.314;2023-04-03T02:56:20;4.82;;;0.30;;
68803;SDS011;55787;52.678;13.314;2023-04-03T02:58:47;4.28;;;0.40;;
68803;SDS011;55787;52.678;13.314;2023-04-03T03:01:14;6.10;;;0.30;;
68803;SDS011;55787;52.678;13.314;2023-04-03T03:03:41;5.28;;;0.38;;
68803;SDS011;55787;52.678;13.314;2023-04-03T03:06:08;5.22;;;0.35;;
68803;SDS011;55787;52.678;13.314;2023-04-03T03:08:37;7.45;;;0.40;;
68803;SDS011;55787;52.678;13.314;2023-04-03T03:11:04;5.70;;;0.40;;
68803;SDS011;55787;52.678;13.314;2023-04-03T03:13:31;5.60;;;0.47;;
68803;SDS011;55787;52.678;13.314;2023-04-03T03:15:58;4.88;;;0.40;;
68803;SDS011;55787;52.678;13.314;2023-04-03T03:18:26;5.38;;;0.75;;
68803;SDS011;55787;52.678;13.314;2023-04-03T03:20:53;5.40;;;0.32;;
68803;SDS011;55787;52.678;13.314;2023-04-03T03:23:21;6.47;;;0.30;;
68803;SDS011;55787;52.678;13.314;2023-04-03T03:25:53;5.00;;;0.40;;
68803;SDS011;55787;52.678;13.314;2023-04-03T03:28:28;5.20;;;0.50;;
68803;SDS011;55787;52.678;13.314;2023-04-03T03:30:55;8.82;;;0.90;;
68803;SDS011;55787;52.678;13.314;2023-04-03T03:33:23;6.47;;;0.30;;
68803;SDS011;55787;52.678;13.314;2023-04-03T03:35:50;4.85;;;0.40;;
68803;SDS011;55787;52.678;13.314;2023-04-03T03:38:17;9.23;;;0.60;;
68803;SDS011;55787;52.678;13.314;2023-04-03T03:40:44;8.20;;;1.02;;
68803;SDS011;55787;52.678;13.314;2023-04-03T03:43:11;7.32;;;0.50;;
68803;SDS011;55787;52.678;13.314;2023-04-03T03:45:37;5.78;;;0.40;;
68803;SDS011;55787;52.678;13.314;2023-04-03T03:48:04;8.38;;;0.60;;
68803;SDS011;55787;52.678;13.314;2023-04-03T03:50:31;10.10;;;0.57;;
68803;SDS011;55787;52.678;13.314;2023-04-03T03:52:58;6.18;;;0.70;;
68803;SDS011;55787;52.678;13.314;2023-04-03T03:55:25;6.32;;;0.70;;
68803;SDS011;55787;52.678;13.314;2023-04-03T03:57:52;5.47;;;0.30;;
68803;SDS011;55787;52.678;13.314;2023-04-03T04:00:19;8.00;;;0.57;;
68803;SDS011;55787;52.678;13.314;2023-04-03T04:02:45;6.40;;;0.50;;
68803;SDS011;55787;52.678;13.314;2023-04-03T04:05:12;6.03;;;0.50;;
68803;SDS011;55787;52.678;13.314;2023-04-03T04:07:40;5.90;;;0.30;;
68803;SDS011;55787;52.678;13.314;2023-04-03T04:10:07;4.43;;;0.40;;
68803;SDS011;55787;52.678;13.314;2023-04-03T04:12:34;7.15;;;0.70;;
68803;SDS011;55787;52.678;13.314;2023-04-03T04:15:02;6.47;;;0.50;;
68803;SDS011;55787;52.678;13.314;2023-04-03T04:17:29;4.43;;;0.30;;
68803;SDS011;55787;52.678;13.314;2023-04-03T04:19:56;6.60;;;0.50;;
68803;SDS011;55787;52.678;13.314;2023-04-03T04:22:22;7.53;;;0.47;;
68803;SDS011;55787;52.678;13.314;2023-04-03T04:24:49;6.07;;;0.40;;
68803;SDS011;55787;52.678;13.314;2023-04-03T04:27:16;4.57;;;0.43;;
68803;SDS011;55787;52.678;13.314;2023-04-03T04:29:43;9.10;;;0.60;;
68803;SDS011;55787;52.678;13.314;2023-04-03T04:32:09;7.65;;;0.75;;
68803;SDS011;55787;52.678;13.314;2023-04-03T04:34:36;9.52;;;1.42;;
68803;SDS011;55787;52.678;13.314;2023-04-03T04:37:02;14.77;;;2.35;;
68803;SDS011;55787;52.678;13.314;2023-04-03T04:39:29;14.77;;;3.13;;
68803;SDS011;55787;52.678;13.314;2023-04-03T04:41:56;17.58;;;3.78;;
68803;SDS011;55787;52.678;13.314;2023-04-03T04:44:23;18.27;;;3.72;;
68803;SDS011;55787;52.678;13.314;2023-04-03T04:46:49;20.95;;;4.07;;
68803;SDS011;55787;52.678;13.314;2023-04-03T04:49:16;13.77;;;2.70;;
68803;SDS011;55787;52.678;13.314;2023-04-03T04:51:42;14.77;;;3.30;;
68803;SDS011;55787;52.678;13.314;2023-04-03T04:54:17;20.90;;;4.32;;
68803;SDS011;55787;52.678;13.314;2023-04-03T04:56:44;18.63;;;3.67;;
68803;SDS011;55787;52.678;13.314;2023-04-03T04:59:11;19.73;;;3.55;;
68803;SDS011;55787;52.678;13.314;2023-04-03T05:01:37;18.33;;;2.97;;
68803;SDS011;55787;52.678;13.314;2023-04-03T05:04:04;11.03;;;2.00;;
68803;SDS011;55787;52.678;13.314;2023-04-03T05:06:31;11.65;;;2.08;;
68803;SDS011;55787;52.678;13.314;2023-04-03T05:08:59;14.00;;;2.45;;
68803;SDS011;55787;52.678;13.314;2023-04-03T05:11:26;11.73;;;2.75;;
68803;SDS011;55787;52.678;13.314;2023-04-03T05:13:53;13.55;;;2.53;;
68803;SDS011;55787;52.678;13.314;2023-04-03T05:16:19;9.63;;;1.93;;
68803;SDS011;55787;52.678;13.314;2023-04-03T05:18:46;8.70;;;1.40;;
68803;SDS011;55787;52.678;13.314;2023-04-03T05:21:13;11.38;;;1.20;;
68803;SDS011;55787;52.678;13.314;2023-04-03T05:23:39;7.63;;;0.82;;
68803;SDS011;55787;52.678;13.314;2023-04-03T05:26:06;8.00;;;1.15;;
68803;SDS011;55787;52.678;13.314;2023-04-03T05:28:33;8.83;;;1.10;;
68803;SDS011;55787;52.678;13.314;2023-04-03T05:30:59;6.38;;;0.70;;
68803;SDS011;55787;52.678;13.314;2023-04-03T05:33:26;4.70;;;0.40;;
68803;SDS011;55787;52.678;13.314;2023-04-03T05:35:54;6.40;;;0.47;;
68803;SDS011;55787;52.678;13.314;2023-04-03T05:38:21;5.65;;;0.45;;
68803;SDS011;55787;52.678;13.314;2023-04-03T05:40:48;6.00;;;0.50;;
68803;SDS011;55787;52.678;13.314;2023-04-03T05:43:14;4.97;;;0.35;;
68803;SDS011;55787;52.678;13.314;2023-04-03T05:45:42;8.27;;;0.50;;
68803;SDS011;55787;52.678;13.314;2023-04-03T05:48:11;5.18;;;0.50;;
68803;SDS011;55787;52.678;13.314;2023-04-03T05:50:39;5.88;;;0.40;;
68803;SDS011;55787;52.678;13.314;2023-04-03T05:53:10;7.20;;;0.50;;
68803;SDS011;55787;52.678;13.314;2023-04-03T05:55:44;5.85;;;0.40;;
68803;SDS011;55787;52.678;13.314;2023-04-03T05:58:10;5.55;;;0.60;;
68803;SDS011;55787;52.678;13.314;2023-04-03T06:00:37;4.28;;;0.32;;
68803;SDS011;55787;52.678;13.314;2023-04-03T06:03:04;10.02;;;0.40;;
68803;SDS011;55787;52.678;13.314;2023-04-03T06:05:31;7.03;;;0.60;;
68803;SDS011;55787;52.678;13.314;2023-04-03T06:07:58;4.45;;;0.40;;
68803;SDS011;55787;52.678;13.314;2023-04-03T06:10:25;10.52;;;0.73;;
68803;SDS011;55787;52.678;13.314;2023-04-03T06:12:52;5.03;;;0.50;;
68803;SDS011;55787;52.678;13.314;2023-04-03T06:15:18;4.43;;;0.30;;
68803;SDS011;55787;52.678;13.314;2023-04-03T06:17:46;5.47;;;0.43;;
68803;SDS011;55787;52.678;13.314;2023-04-03T06:20:13;7.15;;;0.50;;
68803;SDS011;55787;52.678;13.314;2023-04-03T06:22:39;7.15;;;0.50;;
68803;SDS011;55787;52.678;13.314;2023-04-03T06:25:08;5.18;;;0.50;;
68803;SDS011;55787;52.678;13.314;2023-04-03T06:27:35;6.47;;;0.60;;
68803;SDS011;55787;52.678;13.314;2023-04-03T06:30:02;5.90;;;0.80;;
68803;SDS011;55787;52.678;13.314;2023-04-03T06:32:29;6.20;;;0.80;;
68803;SDS011;55787;52.678;13.314;2023-04-03T06:34:56;9.02;;;0.63;;
68803;SDS011;55787;52.678;13.314;2023-04-03T06:37:23;5.22;;;0.50;;
68803;SDS011;55787;52.678;13.314;2023-04-03T06:39:55;5.07;;;0.70;;
68803;SDS011;55787;52.678;13.314;2023-04-03T06:42:22;5.68;;;0.75;;
68803;SDS011;55787;52.678;13.314;2023-04-03T06:44:50;6.13;;;0.70;;
68803;SDS011;55787;52.678;13.314;2023-04-03T06:47:16;6.50;;;0.50;;
68803;SDS011;55787;52.678;13.314;2023-04-03T06:49:43;4.82;;;0.43;;
68803;SDS011;55787;52.678;13.314;2023-04-03T06:52:11;6.72;;;0.60;;
68803;SDS011;55787;52.678;13.314;2023-04-03T06:54:38;4.30;;;0.60;;
68803;SDS011;55787;52.678;13.314;2023-04-03T06:57:06;6.25;;;0.50;;
68803;SDS011;55787;52.678;13.314;2023-04-03T06:59:33;5.93;;;0.60;;
68803;SDS011;55787;52.678;13.314;2023-04-03T07:02:01;5.22;;;0.50;;
68803;SDS011;55787;52.678;13.314;2023-04-03T07:04:28;5.45;;;0.70;;
68803;SDS011;55787;52.678;13.314;2023-04-03T07:06:54;4.38;;;0.47;;
68803;SDS011;55787;52.678;13.314;2023-04-03T07:09:21;6.55;;;0.85;;
68803;SDS011;55787;52.678;13.314;2023-04-03T07:11:47;5.50;;;0.70;;
68803;SDS011;55787;52.678;13.314;2023-04-03T07:14:14;6.75;;;0.80;;
68803;SDS011;55787;52.678;13.314;2023-04-03T07:16:41;7.53;;;0.85;;
68803;SDS011;55787;52.678;13.314;2023-04-03T07:19:08;6.43;;;0.80;;
68803;SDS011;55787;52.678;13.314;2023-04-03T07:21:35;4.13;;;0.38;;
68803;SDS011;55787;52.678;13.314;2023-04-03T07:24:01;5.53;;;0.60;;
68803;SDS011;55787;52.678;13.314;2023-04-03T07:26:28;7.15;;;0.70;;
68803;SDS011;55787;52.678;13.314;2023-04-03T07:28:55;5.00;;;0.50;;
68803;SDS011;55787;52.678;13.314;2023-04-03T07:31:21;6.78;;;0.80;;
68803;SDS011;55787;52.678;13.314;2023-04-03T07:33:49;5.15;;;0.70;;
68803;SDS011;55787;52.678;13.314;2023-04-03T07:36:17;6.72;;;0.90;;
68803;SDS011;55787;52.678;13.314;2023-04-03T07:38:45;5.75;;;0.68;;
68803;SDS011;55787;52.678;13.314;2023-04-03T07:41:13;5.93;;;0.60;;
68803;SDS011;55787;52.678;13.314;2023-04-03T07:43:41;6.50;;;0.60;;
68803;SDS011;55787;52.678;13.314;2023-04-03T07:46:08;3.58;;;0.50;;
68803;SDS011;55787;52.678;13.314;2023-04-03T07:48:35;5.30;;;0.50;;
68803;SDS011;55787;52.678;13.314;2023-04-03T07:51:02;6.15;;;0.50;;
68803;SDS011;55787;52.678;13.314;2023-04-03T07:53:30;5.28;;;0.40;;
68803;SDS011;55787;52.678;13.314;2023-04-03T07:55:58;4.88;;;0.50;;
68803;SDS011;55787;52.678;13.314;2023-04-03T07:58:25;5.07;;;0.82;;
68803;SDS011;55787;52.678;13.314;2023-04-03T08:00:52;7.03;;;0.52;;
68803;SDS011;55787;52.678;13.314;2023-04-03T08:03:18;6.45;;;0.57;;
68803;SDS011;55787;52.678;13.314;2023-04-03T08:05:46;4.43;;;0.30;;
68803;SDS011;55787;52.678;13.314;2023-04-03T08:08:15;4.50;;;0.57;;
68803;SDS011;55787;52.678;13.314;2023-04-03T08:10:50;4.38;;;0.50;;
68803;SDS011;55787;52.678;13.314;2023-04-03T08:13:18;5.32;;;0.50;;
68803;SDS011;55787;52.678;13.314;2023-04-03T08:15:46;5.93;;;0.40;;
68803;SDS011;55787;52.678;13.314;2023-04-03T08:18:13;4.28;;;0.47;;
68803;SDS011;55787;52.678;13.314;2023-04-03T08:20:41;3.67;;;0.40;;
68803;SDS011;55787;52.678;13.314;2023-04-03T08:23:09;3.22;;;0.22;;
68803;SDS011;55787;52.678;13.314;2023-04-03T08:25:37;3.47;;;0.30;;
68803;SDS011;55787;52.678;13.314;2023-04-03T08:28:04;4.75;;;0.30;;
68803;SDS011;55787;52.678;13.314;2023-04-03T08:30:31;3.65;;;0.30;;
68803;SDS011;55787;52.678;13.314;2023-04-03T08:33:00;5.75;;;0.40;;
68803;SDS011;55787;52.678;13.314;2023-04-03T08:35:27;5.75;;;0.30;;
68803;SDS011;55787;52.678;13.314;2023-04-03T08:37:54;6.00;;;0.40;;
68803;SDS011;55787;52.678;13.314;2023-04-03T08:40:21;5.20;;;0.30;;
68803;SDS011;55787;52.678;13.314;2023-04-03T08:42:57;3.45;;;0.30;;
68803;SDS011;55787;52.678;13.314;2023-04-03T08:48:30;4.90;;;0.52;;
68803;SDS011;55787;52.678;13.314;2023-04-03T08:51:02;4.95;;;0.40;;
68803;SDS011;55787;52.678;13.314;2023-04-03T08:53:39;9.02;;;1.90;;
68803;SDS011;55787;52.678;13.314;2023-04-03T08:56:09;4.13;;;0.40;;
68803;SDS011;55787;52.678;13.314;2023-04-03T08:58:44;7.45;;;0.80;;
68803;SDS011;55787;52.678;13.314;2023-04-03T09:01:22;8.35;;;1.05;;
68803;SDS011;55787;52.678;13.314;2023-04-03T09:03:56;5.93;;;0.65;;
68803;SDS011;55787;52.678;13.314;2023-04-03T09:06:26;5.22;;;0.60;;
68803;SDS011;55787;52.678;13.314;2023-04-03T09:11:48;6.53;;;0.50;;
68803;SDS011;55787;52.678;13.314;2023-04-03T09:14:26;6.00;;;0.50;;
68803;SDS011;55787;52.678;13.314;2023-04-03T09:20:33;3.90;;;0.40;;
68803;SDS011;55787;52.678;13.314;2023-04-03T09:22:38;4.20;;;0.30;;
68803;SDS011;55787;52.678;13.314;2023-04-03T09:25:19;4.05;;;0.40;;
68803;SDS011;55787;52.678;13.314;2023-04-03T09:27:48;3.90;;;0.30;;
68803;SDS011;55787;52.678;13.314;2023-04-03T09:30:16;5.07;;;0.40;;
68803;SDS011;55787;52.678;13.314;2023-04-03T09:32:46;6.68;;;0.40;;
68803;SDS011;55787;52.678;13.314;2023-04-03T09:45:52;4.22;;;0.30;;
68803;SDS011;55787;52.678;13.314;2023-04-03T09:48:24;3.13;;;0.20;;
68803;SDS011;55787;52.678;13.314;2023-04-03T09:53:36;4.05;;;0.40;;
68803;SDS011;55787;52.678;13.314;2023-04-03T09:58:48;4.65;;;0.30;;
68803;SDS011;55787;52.678;13.314;2023-04-03T10:04:09;5.28;;;0.50;;
68803;SDS011;55787;52.678;13.314;2023-04-03T10:06:37;4.68;;;0.50;;
68803;SDS011;55787;52.678;13.314;2023-04-03T10:09:26;4.20;;;0.32;;
68803;SDS011;55787;52.678;13.314;2023-04-03T10:12:02;6.88;;;0.40;;
68803;SDS011;55787;52.678;13.314;2023-04-03T10:14:34;5.57;;;0.38;;
68803;SDS011;55787;52.678;13.314;2023-04-03T10:33:45;3.78;;;0.30;;
68803;SDS011;55787;52.678;13.314;2023-04-03T10:36:23;4.95;;;0.32;;
68803;SDS011;55787;52.678;13.314;2023-04-03T10:39:12;3.17;;;0.40;;
68803;SDS011;55787;52.678;13.314;2023-04-03T10:44:55;6.18;;;0.43;;
68803;SDS011;55787;52.678;13.314;2023-04-03T10:57:54;4.38;;;0.40;;
68803;SDS011;55787;52.678;13.314;2023-04-03T11:00:26;6.35;;;0.50;;
68803;SDS011;55787;52.678;13.314;2023-04-03T11:03:03;5.80;;;0.45;;
68803;SDS011;55787;52.678;13.314;2023-04-03T11:11:22;5.00;;;0.47;;
68803;SDS011;55787;52.678;13.314;2023-04-03T11:13:58;4.30;;;0.60;;
68803;SDS011;55787;52.678;13.314;2023-04-03T11:16:33;4.03;;;0.30;;
68803;SDS011;55787;52.678;13.314;2023-04-03T11:19:19;4.70;;;0.40;;
68803;SDS011;55787;52.678;13.314;2023-04-03T11:21:54;5.03;;;0.38;;
68803;SDS011;55787;52.678;13.314;2023-04-03T11:24:29;4.95;;;0.40;;
68803;SDS011;55787;52.678;13.314;2023-04-03T11:26:59;5.20;;;0.40;;
68803;SDS011;55787;52.678;13.314;2023-04-03T11:29:36;3.30;;;0.30;;
68803;SDS011;55787;52.678;13.314;2023-04-03T11:34:56;4.70;;;0.40;;
68803;SDS011;55787;52.678;13.314;2023-04-03T11:37:29;4.78;;;0.35;;
68803;SDS011;55787;52.678;13.314;2023-04-03T11:42:42;4.63;;;0.30;;
68803;SDS011;55787;52.678;13.314;2023-04-03T11:50:50;3.55;;;0.25;;
68803;SDS011;55787;52.678;13.314;2023-04-03T11:53:28;4.82;;;0.30;;
68803;SDS011;55787;52.678;13.314;2023-04-03T12:01:51;6.82;;;0.65;;
68803;SDS011;55787;52.678;13.314;2023-04-03T12:04:20;5.40;;;0.40;;
68803;SDS011;55787;52.678;13.314;2023-04-03T12:06:50;4.47;;;0.50;;
68803;SDS011;55787;52.678;13.314;2023-04-03T12:12:28;6.38;;;0.38;;
68803;SDS011;55787;52.678;13.314;2023-04-03T12:16:02;3.78;;;0.30;;
68803;SDS011;55787;52.678;13.314;2023-04-03T12:21:09;7.57;;;0.60;;
68803;SDS011;55787;52.678;13.314;2023-04-03T12:23:37;5.38;;;0.32;;
68803;SDS011;55787;52.678;13.314;2023-04-03T12:26:26;3.78;;;0.40;;
68803;SDS011;55787;52.678;13.314;2023-04-03T12:35:20;5.30;;;0.30;;
68803;SDS011;55787;52.678;13.314;2023-04-03T12:43:11;5.75;;;0.40;;
68803;SDS011;55787;52.678;13.314;2023-04-03T12:48:46;3.60;;;0.40;;
68803;SDS011;55787;52.678;13.314;2023-04-03T12:51:21;5.43;;;0.40;;
68803;SDS011;55787;52.678;13.314;2023-04-03T12:54:02;3.38;;;0.43;;
68803;SDS011;55787;52.678;13.314;2023-04-03T12:56:39;3.85;;;0.30;;
68803;SDS011;55787;52.678;13.314;2023-04-03T13:02:00;5.97;;;0.57;;
68803;SDS011;55787;52.678;13.314;2023-04-03T13:04:28;4.60;;;0.40;;
68803;SDS011;55787;52.678;13.314;2023-04-03T13:06:57;5.45;;;0.50;;
68803;SDS011;55787;52.678;13.314;2023-04-03T13:09:28;5.38;;;0.43;;
68803;SDS011;55787;52.678;13.314;2023-04-03T13:12:17;4.78;;;0.30;;
68803;SDS011;55787;52.678;13.314;2023-04-03T13:15:11;4.13;;;0.40;;
68803;SDS011;55787;52.678;13.314;2023-04-03T13:17:41;5.43;;;0.40;;
68803;SDS011;55787;52.678;13.314;2023-04-03T13:20:10;4.47;;;0.45;;
68803;SDS011;55787;52.678;13.314;2023-04-03T13:23:08;5.28;;;0.50;;
68803;SDS011;55787;52.678;13.314;2023-04-03T13:25:40;6.30;;;0.60;;
68803;SDS011;55787;52.678;13.314;2023-04-03T13:28:10;3.85;;;0.30;;
68803;SDS011;55787;52.678;13.314;2023-04-03T13:30:49;4.40;;;0.38;;
68803;SDS011;55787;52.678;13.314;2023-04-03T13:33:23;2.95;;;0.28;;
68803;SDS011;55787;52.678;13.314;2023-04-03T13:35:59;4.20;;;0.47;;
68803;SDS011;55787;52.678;13.314;2023-04-03T13:38:29;3.17;;;0.28;;
68803;SDS011;55787;52.678;13.314;2023-04-03T13:41:01;4.18;;;0.40;;
68803;SDS011;55787;52.678;13.314;2023-04-03T13:43:49;4.47;;;0.43;;
68803;SDS011;55787;52.678;13.314;2023-04-03T13:48:46;4.75;;;0.43;;
68803;SDS011;55787;52.678;13.314;2023-04-03T13:51:20;4.63;;;0.40;;
68803;SDS011;55787;52.678;13.314;2023-04-03T13:56:33;2.85;;;0.20;;
68803;SDS011;55787;52.678;13.314;2023-04-03T14:01:57;7.20;;;1.23;;
68803;SDS011;55787;52.678;13.314;2023-04-03T14:07:08;9.07;;;0.70;;
68803;SDS011;55787;52.678;13.314;2023-04-03T14:09:36;3.90;;;0.45;;
68803;SDS011;55787;52.678;13.314;2023-04-03T14:12:07;5.53;;;0.70;;
68803;SDS011;55787;52.678;13.314;2023-04-03T14:14:55;5.15;;;0.43;;
68803;SDS011;55787;52.678;13.314;2023-04-03T14:17:23;6.55;;;0.85;;
68803;SDS011;55787;52.678;13.314;2023-04-03T14:19:53;3.42;;;0.40;;
68803;SDS011;55787;52.678;13.314;2023-04-03T14:22:23;4.53;;;0.30;;
68803;SDS011;55787;52.678;13.314;2023-04-03T14:24:55;5.22;;;0.80;;
68803;SDS011;55787;52.678;13.314;2023-04-03T14:27:44;5.70;;;0.75;;
68803;SDS011;55787;52.678;13.314;2023-04-03T14:30:18;5.55;;;0.57;;
68803;SDS011;55787;52.678;13.314;2023-04-03T14:32:49;6.50;;;0.90;;
68803;SDS011;55787;52.678;13.314;2023-04-03T14:35:17;6.25;;;0.70;;
68803;SDS011;55787;52.678;13.314;2023-04-03T14:37:45;4.03;;;0.50;;
68803;SDS011;55787;52.678;13.314;2023-04-03T14:40:13;8.68;;;0.50;;
68803;SDS011;55787;52.678;13.314;2023-04-03T14:42:41;5.13;;;0.80;;
68803;SDS011;55787;52.678;13.314;2023-04-03T14:45:09;6.32;;;0.65;;
68803;SDS011;55787;52.678;13.314;2023-04-03T14:47:52;5.60;;;0.70;;
68803;SDS011;55787;52.678;13.314;2023-04-03T14:50:22;7.15;;;1.15;;
68803;SDS011;55787;52.678;13.314;2023-04-03T14:52:51;5.38;;;0.60;;
68803;SDS011;55787;52.678;13.314;2023-04-03T14:55:20;3.65;;;0.40;;
68803;SDS011;55787;52.678;13.314;2023-04-03T14:57:49;5.43;;;0.40;;
68803;SDS011;55787;52.678;13.314;2023-04-03T15:00:17;5.45;;;0.50;;
68803;SDS011;55787;52.678;13.314;2023-04-03T15:02:46;5.30;;;0.68;;
68803;SDS011;55787;52.678;13.314;2023-04-03T15:05:14;5.20;;;0.50;;
68803;SDS011;55787;52.678;13.314;2023-04-03T15:07:52;7.47;;;1.38;;
68803;SDS011;55787;52.678;13.314;2023-04-03T15:10:22;7.38;;;1.00;;
68803;SDS011;55787;52.678;13.314;2023-04-03T15:12:56;6.00;;;0.80;;
68803;SDS011;55787;52.678;13.314;2023-04-03T15:15:23;6.18;;;0.90;;
68803;SDS011;55787;52.678;13.314;2023-04-03T15:17:51;6.03;;;0.82;;
68803;SDS011;55787;52.678;13.314;2023-04-03T15:20:22;6.90;;;0.77;;
68803;SDS011;55787;52.678;13.314;2023-04-03T15:22:50;4.25;;;0.47;;
68803;SDS011;55787;52.678;13.314;2023-04-03T15:25:18;5.22;;;0.60;;
68803;SDS011;55787;52.678;13.314;2023-04-03T15:27:44;7.15;;;1.00;;
68803;SDS011;55787;52.678;13.314;2023-04-03T15:30:13;7.60;;;0.85;;
68803;SDS011;55787;52.678;13.314;2023-04-03T15:32:42;8.70;;;1.27;;
68803;SDS011;55787;52.678;13.314;2023-04-03T15:35:09;6.57;;;1.00;;
68803;SDS011;55787;52.678;13.314;2023-04-03T15:37:36;7.72;;;0.85;;
68803;SDS011;55787;52.678;13.314;2023-04-03T15:40:03;6.00;;;0.75;;
68803;SDS011;55787;52.678;13.314;2023-04-03T15:42:31;7.30;;;1.27;;
68803;SDS011;55787;52.678;13.314;2023-04-03T15:44:58;7.53;;;1.20;;
68803;SDS011;55787;52.678;13.314;2023-04-03T15:47:25;5.50;;;1.00;;
68803;SDS011;55787;52.678;13.314;2023-04-03T15:49:53;5.47;;;1.08;;
68803;SDS011;55787;52.678;13.314;2023-04-03T15:52:21;7.43;;;1.30;;
68803;SDS011;55787;52.678;13.314;2023-04-03T15:54:48;6.78;;;1.35;;
68803;SDS011;55787;52.678;13.314;2023-04-03T15:57:15;6.97;;;1.53;;
68803;SDS011;55787;52.678;13.314;2023-04-03T15:59:41;8.55;;;1.13;;
68803;SDS011;55787;52.678;13.314;2023-04-03T16:02:08;7.20;;;1.20;;
68803;SDS011;55787;52.678;13.314;2023-04-03T16:04:39;8.10;;;1.13;;
68803;SDS011;55787;52.678;13.314;2023-04-03T16:07:06;7.25;;;1.08;;
68803;SDS011;55787;52.678;13.314;2023-04-03T16:09:33;5.60;;;0.60;;
68803;SDS011;55787;52.678;13.314;2023-04-03T16:12:00;4.55;;;0.55;;
68803;SDS011;55787;52.678;13.314;2023-04-03T16:14:28;6.50;;;0.70;;
68803;SDS011;55787;52.678;13.314;2023-04-03T16:16:56;8.23;;;1.10;;
68803;SDS011;55787;52.678;13.314;2023-04-03T16:19:24;6.05;;;0.82;;
68803;SDS011;55787;52.678;13.314;2023-04-03T16:21:52;7.60;;;1.63;;
68803;SDS011;55787;52.678;13.314;2023-04-03T16:24:20;7.07;;;0.98;;
68803;SDS011;55787;52.678;13.314;2023-04-03T16:26:47;8.35;;;1.92;;
68803;SDS011;55787;52.678;13.314;2023-04-03T16:29:13;10.82;;;2.05;;
68803;SDS011;55787;52.678;13.314;2023-04-03T16:31:40;8.07;;;1.15;;
68803;SDS011;55787;52.678;13.314;2023-04-03T16:34:07;5.77;;;0.90;;
68803;SDS011;55787;52.678;13.314;2023-04-03T16:36:34;8.18;;;0.90;;
68803;SDS011;55787;52.678;13.314;2023-04-03T16:39:00;8.20;;;1.42;;
68803;SDS011;55787;52.678;13.314;2023-04-03T16:41:27;6.30;;;0.75;;
68803;SDS011;55787;52.678;13.314;2023-04-03T16:43:54;8.40;;;1.48;;
68803;SDS011;55787;52.678;13.314;2023-04-03T16:46:20;7.90;;;1.80;;
68803;SDS011;55787;52.678;13.314;2023-04-03T16:48:47;5.78;;;0.75;;